createdAt,value
2022-12-29T00:00:16.945Z,1.88
2022-12-29T00:05:18.467Z,2.80
2022-12-29T00:10:19.967Z,2.65
2022-12-29T00:15:39.650Z,2.25
2022-12-29T00:20:59.619Z,2.20
2022-12-29T00:26:22.505Z,1.60
2022-12-29T00:31:42.657Z,1.50
2022-12-29T00:36:45.042Z,2.10
2022-12-29T00:42:05.109Z,1.85
2022-12-29T00:47:06.702Z,1.55
2022-12-29T00:52:09.790Z,2.03
2022-12-29T00:57:11.600Z,2.15
2022-12-29T01:02:13.627Z,1.90
2022-12-29T01:07:15.208Z,1.88
2022-12-29T01:12:16.697Z,1.48
2022-12-29T01:17:19.884Z,1.63
2022-12-29T01:22:21.413Z,1.38
2022-12-29T01:27:22.899Z,1.45
2022-12-29T01:32:24.518Z,1.48
2022-12-29T01:37:26.038Z,1.55
2022-12-29T01:42:27.534Z,1.00
2022-12-29T01:47:36.014Z,1.40
2022-12-29T01:52:39.883Z,1.60
2022-12-29T01:57:43.920Z,1.15
2022-12-29T02:03:10.940Z,1.02
2022-12-29T02:08:13.071Z,1.10
2022-12-29T02:13:18.320Z,0.90
2022-12-29T02:18:29.552Z,0.82
2022-12-29T02:23:31.024Z,1.25
2022-12-29T02:28:41.161Z,1.00
2022-12-29T02:38:53.255Z,0.73
2022-12-29T02:44:05.035Z,0.80
2022-12-29T02:49:15.147Z,0.82
2022-12-29T02:59:37.059Z,0.90
2022-12-29T03:04:44.918Z,0.77
2022-12-29T03:09:49.513Z,0.95
2022-12-29T03:15:12.758Z,0.90
2022-12-29T03:20:18.526Z,1.17
2022-12-29T03:25:40.277Z,1.10
2022-12-29T03:30:42.736Z,1.00
2022-12-29T03:35:45.493Z,1.48
2022-12-29T03:40:49.477Z,1.02
2022-12-29T03:45:51.158Z,1.30
2022-12-29T03:50:52.793Z,1.33
2022-12-29T03:55:54.298Z,1.25
2022-12-29T04:00:55.958Z,1.02
2022-12-29T04:05:57.508Z,1.10
2022-12-29T04:10:59.095Z,1.02
2022-12-29T04:16:00.674Z,1.10
2022-12-29T04:21:03.758Z,1.33
2022-12-29T04:26:08.043Z,0.93
2022-12-29T04:31:09.584Z,1.02
2022-12-29T04:36:11.147Z,1.08
2022-12-29T04:41:12.636Z,0.93
2022-12-29T04:46:14.234Z,0.98
2022-12-29T04:51:15.966Z,0.95
2022-12-29T04:56:17.491Z,0.88
2022-12-29T05:01:20.303Z,0.95
2022-12-29T05:06:21.870Z,1.23
2022-12-29T05:11:23.424Z,0.75
2022-12-29T05:16:24.991Z,1.15
2022-12-29T05:21:26.572Z,0.68
2022-12-29T05:26:28.162Z,0.90
2022-12-29T05:31:29.855Z,0.90
2022-12-29T05:36:37.258Z,0.93
2022-12-29T05:41:39.394Z,0.80
2022-12-29T05:46:40.946Z,0.80
2022-12-29T05:51:42.549Z,1.05
2022-12-29T05:56:44.090Z,0.77
2022-12-29T06:01:46.156Z,1.02
2022-12-29T06:06:47.893Z,0.65
2022-12-29T06:11:49.377Z,0.90
2022-12-29T06:16:50.879Z,0.82
2022-12-29T06:21:53.645Z,1.00
2022-12-29T06:26:55.138Z,1.17
2022-12-29T06:31:59.590Z,1.27
2022-12-29T06:37:02.224Z,1.65
2022-12-29T06:42:03.792Z,1.33
2022-12-29T06:47:05.298Z,1.48
2022-12-29T06:52:12.410Z,1.52
2022-12-29T06:57:14.547Z,1.13
2022-12-29T07:02:17.802Z,1.30
2022-12-29T07:07:19.944Z,1.50
2022-12-29T07:12:21.419Z,1.67
2022-12-29T07:17:23.094Z,2.00
2022-12-29T07:22:24.575Z,2.13
2022-12-29T07:27:26.074Z,2.08
2022-12-29T07:32:27.635Z,1.77
2022-12-29T07:37:29.172Z,1.90
2022-12-29T07:42:31.452Z,2.08
2022-12-29T07:47:33.072Z,1.60
2022-12-29T07:52:35.329Z,1.77
2022-12-29T07:57:36.848Z,1.50
2022-12-29T08:02:38.586Z,1.20
2022-12-29T08:07:40.233Z,1.23
2022-12-29T08:12:42.551Z,1.05
2022-12-29T08:17:44.127Z,0.93
2022-12-29T08:22:45.661Z,0.98
2022-12-29T08:27:47.176Z,1.77
2022-12-29T08:32:48.741Z,1.15
2022-12-29T08:37:50.284Z,0.90
2022-12-29T08:42:51.792Z,0.85
2022-12-29T08:47:53.436Z,0.60
2022-12-29T08:52:54.936Z,0.73
2022-12-29T08:57:56.905Z,0.88
2022-12-29T09:02:58.769Z,0.75
2022-12-29T09:08:00.461Z,0.60
2022-12-29T09:13:02.006Z,0.38
2022-12-29T09:18:03.576Z,0.45
2022-12-29T09:23:07.041Z,0.20
2022-12-29T09:28:08.801Z,0.10
2022-12-29T09:33:10.300Z,0.40
2022-12-29T09:38:12.486Z,0.50
2022-12-29T09:43:19.840Z,0.70
2022-12-29T09:48:24.160Z,0.70
2022-12-29T09:53:37.152Z,0.47
2022-12-29T09:58:44.909Z,0.52
2022-12-29T10:03:48.490Z,1.35
2022-12-29T10:09:03.496Z,1.27
2022-12-29T10:14:13.753Z,0.52
2022-12-29T10:19:35.773Z,0.75
2022-12-29T10:24:39.391Z,0.63
2022-12-29T10:29:53.234Z,0.60
2022-12-29T10:34:56.692Z,0.50
2022-12-29T10:39:59.257Z,0.40
2022-12-29T10:45:01.102Z,0.50
2022-12-29T10:50:02.948Z,0.55
2022-12-29T10:55:08.958Z,0.47
2022-12-29T11:00:13.534Z,0.50
2022-12-29T11:05:26.479Z,0.22
2022-12-29T11:10:27.963Z,0.55
2022-12-29T11:15:39.202Z,0.40
2022-12-29T11:20:43.459Z,0.50
2022-12-29T11:25:44.973Z,0.50
2022-12-29T11:30:59.783Z,1.40
2022-12-29T11:36:21.510Z,0.57
2022-12-29T11:41:26.805Z,0.70
2022-12-29T11:46:30.494Z,0.63
2022-12-29T11:51:44.822Z,0.65
2022-12-29T11:56:46.829Z,1.08
2022-12-29T12:01:48.958Z,1.20
2022-12-29T12:06:59.133Z,1.38
2022-12-29T12:12:01.821Z,1.48
2022-12-29T12:17:18.229Z,1.75
2022-12-29T12:22:28.889Z,1.58
2022-12-29T12:27:37.187Z,0.90
2022-12-29T12:32:53.502Z,1.10
2022-12-29T12:38:13.868Z,1.40
2022-12-29T12:43:24.227Z,0.90
2022-12-29T12:48:25.747Z,0.93
2022-12-29T12:53:32.223Z,0.75
2022-12-29T12:58:42.864Z,0.70
2022-12-29T13:03:44.478Z,0.65
2022-12-29T13:09:01.501Z,0.40
2022-12-29T13:14:02.955Z,0.50
2022-12-29T13:19:13.626Z,0.60
2022-12-29T13:24:33.915Z,0.63
2022-12-29T13:29:43.440Z,0.50
2022-12-29T13:35:04.036Z,0.47
2022-12-29T13:45:10.750Z,0.40
2022-12-29T13:50:16.903Z,0.50
2022-12-29T13:55:18.387Z,0.50
2022-12-29T14:00:23.876Z,0.43
2022-12-29T14:05:25.341Z,0.80
2022-12-29T14:10:28.654Z,0.65
2022-12-29T14:15:30.147Z,1.80
2022-12-29T14:20:31.845Z,0.88
2022-12-29T14:25:52.215Z,0.90
2022-12-29T14:30:54.978Z,0.93
2022-12-29T14:35:57.147Z,1.25
2022-12-29T14:41:34.087Z,1.40
2022-12-29T14:46:44.544Z,1.67
2022-12-29T14:51:46.615Z,1.85
2022-12-29T14:56:48.143Z,2.58
2022-12-29T15:01:52.966Z,2.08
2022-12-29T15:06:55.203Z,1.95
2022-12-29T15:12:07.726Z,1.98
2022-12-29T15:17:31.061Z,1.50
2022-12-29T15:22:32.521Z,1.35
2022-12-29T15:27:34.009Z,1.25
2022-12-29T15:32:44.283Z,1.50
2022-12-29T15:42:53.226Z,0.82
2022-12-29T15:47:56.668Z,1.17
2022-12-29T15:52:58.866Z,0.77
2022-12-29T15:58:02.139Z,0.90
2022-12-29T16:03:05.298Z,0.98
2022-12-29T16:08:25.518Z,1.25
2022-12-29T16:13:29.969Z,0.85
2022-12-29T16:18:36.659Z,1.02
2022-12-29T16:23:38.415Z,1.17
2022-12-29T16:28:43.164Z,1.33
2022-12-29T16:33:47.439Z,1.77
2022-12-29T16:38:48.918Z,1.20
2022-12-29T16:44:10.314Z,1.40
2022-12-29T16:49:21.097Z,1.33
2022-12-29T16:54:24.101Z,1.27
2022-12-29T16:59:34.981Z,1.30
2022-12-29T17:04:36.587Z,1.30
2022-12-29T17:09:38.073Z,1.58
2022-12-29T17:14:45.797Z,1.33
2022-12-29T17:19:52.628Z,1.05
2022-12-29T17:24:55.106Z,1.23
2022-12-29T17:29:58.282Z,1.20
2022-12-29T17:34:59.799Z,1.55
2022-12-29T17:40:01.398Z,0.85
2022-12-29T17:45:03.250Z,1.08
2022-12-29T17:50:05.065Z,0.80
2022-12-29T17:55:06.827Z,0.60
2022-12-29T18:00:14.202Z,1.35
2022-12-29T18:05:18.258Z,1.02
2022-12-29T18:10:20.461Z,1.30
2022-12-29T18:15:30.155Z,1.00
2022-12-29T18:20:31.667Z,0.93
2022-12-29T18:25:33.156Z,0.65
2022-12-29T18:30:35.954Z,1.38
2022-12-29T18:35:47.986Z,0.98
2022-12-29T18:40:49.728Z,1.05
2022-12-29T18:45:51.495Z,1.17
2022-12-29T18:50:53.444Z,1.05
2022-12-29T18:55:57.496Z,1.27
2022-12-29T19:00:59.151Z,1.45
2022-12-29T19:06:00.987Z,1.27
2022-12-29T19:11:02.573Z,1.30
2022-12-29T19:16:04.305Z,1.25
2022-12-29T19:21:05.951Z,1.60
2022-12-29T19:26:07.888Z,1.55
2022-12-29T19:31:09.867Z,1.40
2022-12-29T19:36:15.495Z,1.20
2022-12-29T19:41:17.080Z,1.38
2022-12-29T19:46:19.181Z,1.00
2022-12-29T19:51:21.005Z,1.02
2022-12-29T19:56:22.522Z,1.33
2022-12-29T20:01:24.665Z,1.30
2022-12-29T20:06:26.274Z,1.48
2022-12-29T20:11:27.810Z,0.80
2022-12-29T20:16:29.849Z,1.23
2022-12-29T20:21:31.373Z,0.82
2022-12-29T20:26:32.877Z,1.00
2022-12-29T20:31:37.035Z,0.80
2022-12-29T20:36:39.910Z,1.15
2022-12-29T20:41:41.482Z,1.67
2022-12-29T20:46:44.309Z,1.20
2022-12-29T20:57:08.532Z,1.27
2022-12-29T21:02:18.365Z,1.33
2022-12-29T21:07:20.611Z,0.77
2022-12-29T21:12:22.400Z,1.08
2022-12-29T21:17:23.901Z,0.82
2022-12-29T21:22:25.396Z,1.13
2022-12-29T21:27:26.871Z,0.95
2022-12-29T21:32:28.385Z,1.05
2022-12-29T21:37:29.874Z,1.02
2022-12-29T21:42:31.712Z,1.02
2022-12-29T21:47:53.685Z,1.13
2022-12-29T21:52:55.187Z,1.48
2022-12-29T21:58:31.856Z,0.60
2022-12-29T22:03:52.282Z,0.98
2022-12-29T22:09:12.187Z,1.05
2022-12-29T22:14:13.720Z,0.70
2022-12-29T22:19:15.919Z,0.85
2022-12-29T22:24:17.422Z,0.90
2022-12-29T22:29:18.917Z,0.85
2022-12-29T22:34:20.439Z,0.88
2022-12-29T22:39:21.909Z,1.20
2022-12-29T22:44:23.415Z,0.68
2022-12-29T22:49:24.904Z,0.85
2022-12-29T22:54:26.434Z,0.70
2022-12-29T22:59:28.231Z,0.90
2022-12-29T23:09:51.438Z,0.80
2022-12-29T23:14:53.045Z,0.70
2022-12-29T23:19:54.542Z,0.60
2022-12-29T23:24:56.034Z,0.80
2022-12-29T23:29:57.592Z,0.90
2022-12-29T23:34:59.072Z,0.80
2022-12-29T23:40:00.653Z,0.60
2022-12-29T23:45:02.224Z,0.75
2022-12-29T23:50:03.879Z,0.68
2022-12-29T23:55:05.644Z,1.00
